createdAt,value
2017-07-10T00:00:51.080Z,19.77
2017-07-10T00:01:51.806Z,19.79
2017-07-10T00:02:52.537Z,19.81
2017-07-10T00:03:53.262Z,19.77
2017-07-10T00:04:53.989Z,19.79
2017-07-10T00:05:54.721Z,19.76
2017-07-10T00:06:55.446Z,19.76
2017-07-10T00:07:56.173Z,19.67
2017-07-10T00:08:56.903Z,19.66
2017-07-10T00:09:57.625Z,19.63
2017-07-10T00:10:58.359Z,19.62
2017-07-10T00:11:59.091Z,19.62
2017-07-10T00:12:59.813Z,19.64
2017-07-10T00:14:00.542Z,19.55
2017-07-10T00:15:01.269Z,19.62
2017-07-10T00:16:01.997Z,19.55
2017-07-10T00:17:02.724Z,19.58
2017-07-10T00:18:03.450Z,19.52
2017-07-10T00:19:04.180Z,19.51
2017-07-10T00:20:04.906Z,19.47
2017-07-10T00:21:05.635Z,19.54
2017-07-10T00:22:06.365Z,19.54
2017-07-10T00:23:07.090Z,19.45
2017-07-10T00:24:07.819Z,19.49
2017-07-10T00:25:08.549Z,19.55
2017-07-10T00:26:09.279Z,19.41
2017-07-10T00:27:10.005Z,19.41
2017-07-10T00:28:10.733Z,19.40
2017-07-10T00:29:11.465Z,19.41
2017-07-10T00:30:12.188Z,19.40
2017-07-10T00:31:12.924Z,19.37
2017-07-10T00:32:13.649Z,19.41
2017-07-10T00:33:14.377Z,19.34
2017-07-10T00:34:15.109Z,19.40
2017-07-10T00:35:15.837Z,19.33
2017-07-10T00:36:16.587Z,19.34
2017-07-10T00:37:17.313Z,19.27
2017-07-10T00:38:18.040Z,19.33
2017-07-10T00:39:18.772Z,19.29
2017-07-10T00:40:19.499Z,19.27
2017-07-10T00:41:20.224Z,19.21
2017-07-10T00:42:20.952Z,19.34
2017-07-10T00:43:21.679Z,19.31
2017-07-10T00:44:22.428Z,19.24
2017-07-10T00:45:23.156Z,19.29
2017-07-10T00:46:23.887Z,19.30
2017-07-10T00:47:24.612Z,19.30
2017-07-10T00:48:25.343Z,19.31
2017-07-10T00:49:26.066Z,19.24
2017-07-10T00:50:26.820Z,19.33
2017-07-10T00:51:27.544Z,19.30
2017-07-10T00:52:28.275Z,19.29
2017-07-10T00:53:29.005Z,19.22
2017-07-10T00:54:29.732Z,19.29
2017-07-10T00:55:30.459Z,19.19
2017-07-10T00:56:31.184Z,19.24
2017-07-10T00:57:31.938Z,19.27
2017-07-10T00:58:32.667Z,19.16
2017-07-10T00:59:33.392Z,19.18
2017-07-10T01:00:34.119Z,19.16
2017-07-10T01:01:34.844Z,19.15
2017-07-10T01:02:35.572Z,19.12
2017-07-10T01:03:36.296Z,19.14
2017-07-10T01:04:37.027Z,19.16
2017-07-10T01:05:37.756Z,19.08
2017-07-10T01:06:38.511Z,19.11
2017-07-10T01:07:39.234Z,19.04
2017-07-10T01:08:39.959Z,19.08
2017-07-10T01:09:40.687Z,19.04
2017-07-10T01:10:41.419Z,18.99
2017-07-10T01:11:42.143Z,19.02
2017-07-10T01:12:42.875Z,19.12
2017-07-10T01:13:43.605Z,19.09
2017-07-10T01:14:44.329Z,19.00
2017-07-10T01:15:45.062Z,19.12
2017-07-10T01:16:45.786Z,19.07
2017-07-10T01:17:46.517Z,19.09
2017-07-10T01:18:47.242Z,19.02
2017-07-10T01:19:47.972Z,19.14
2017-07-10T01:20:48.727Z,19.02
2017-07-10T01:21:49.453Z,19.07
2017-07-10T01:22:50.178Z,19.04
2017-07-10T01:23:50.904Z,18.96
2017-07-10T01:24:51.632Z,19.07
2017-07-10T01:25:52.357Z,18.95
2017-07-10T01:26:53.083Z,18.99
2017-07-10T01:27:53.812Z,18.95
2017-07-10T01:28:54.556Z,18.93
2017-07-10T01:29:55.282Z,18.90
2017-07-10T01:30:56.006Z,18.93
2017-07-10T01:31:56.755Z,18.92
2017-07-10T01:32:57.479Z,18.93
2017-07-10T01:33:58.205Z,18.88
2017-07-10T01:34:58.932Z,18.89
2017-07-10T01:35:59.657Z,18.90
2017-07-10T01:37:00.385Z,18.89
2017-07-10T01:38:01.115Z,18.90
2017-07-10T01:39:01.838Z,18.88
2017-07-10T01:40:02.565Z,18.88
2017-07-10T01:41:03.287Z,18.89
2017-07-10T01:42:04.016Z,18.84
2017-07-10T01:43:04.743Z,18.90
2017-07-10T01:44:05.467Z,18.88
2017-07-10T01:45:06.191Z,18.90
2017-07-10T01:46:06.917Z,18.80
2017-07-10T01:47:07.643Z,18.75
2017-07-10T01:48:08.366Z,18.77
2017-07-10T01:49:09.093Z,18.71
2017-07-10T01:50:09.815Z,18.74
2017-07-10T01:51:10.540Z,18.73
2017-07-10T01:52:11.268Z,18.71
2017-07-10T01:53:11.991Z,18.66
2017-07-10T01:54:12.718Z,18.74
2017-07-10T01:55:13.443Z,18.70
2017-07-10T01:56:14.169Z,18.73
2017-07-10T01:57:14.892Z,18.74
2017-07-10T01:58:15.617Z,18.66
2017-07-10T01:59:16.341Z,18.66
2017-07-10T02:00:17.067Z,18.75
2017-07-10T02:01:17.794Z,18.70
2017-07-10T02:02:18.515Z,18.65
2017-07-10T02:03:19.242Z,18.63
2017-07-10T02:04:19.967Z,18.74
2017-07-10T02:05:20.693Z,18.75
2017-07-10T02:06:21.419Z,18.66
2017-07-10T02:07:22.143Z,18.70
2017-07-10T02:08:22.868Z,18.62
2017-07-10T02:09:23.596Z,18.74
2017-07-10T02:10:24.323Z,18.63
2017-07-10T02:11:25.049Z,18.71
2017-07-10T02:12:25.796Z,18.63
2017-07-10T02:13:26.524Z,18.65
2017-07-10T02:14:27.249Z,18.75
2017-07-10T02:15:27.975Z,18.71
2017-07-10T02:16:28.695Z,18.73
2017-07-10T02:17:29.425Z,18.70
2017-07-10T02:18:30.143Z,18.63
2017-07-10T02:19:30.868Z,18.63
2017-07-10T02:20:31.617Z,18.59
2017-07-10T02:21:32.345Z,18.58
2017-07-10T02:22:33.067Z,18.58
2017-07-10T02:23:33.793Z,18.63
2017-07-10T02:24:34.541Z,18.70
2017-07-10T02:25:35.264Z,18.74
2017-07-10T02:26:35.991Z,18.74
2017-07-10T02:27:36.720Z,18.56
2017-07-10T02:28:37.445Z,18.56
2017-07-10T02:29:38.169Z,18.63
2017-07-10T02:30:38.895Z,18.58
2017-07-10T02:31:39.624Z,18.56
2017-07-10T02:32:40.348Z,18.53
2017-07-10T02:33:41.095Z,18.55
2017-07-10T02:34:41.821Z,18.49
2017-07-10T02:35:42.543Z,18.50
2017-07-10T02:36:43.287Z,18.50
2017-07-10T02:37:44.011Z,18.50
2017-07-10T02:38:44.739Z,18.43
2017-07-10T02:39:45.464Z,18.58
2017-07-10T02:40:46.194Z,18.52
2017-07-10T02:41:46.916Z,18.53
2017-07-10T02:42:47.639Z,18.49
2017-07-10T02:43:48.365Z,18.50
2017-07-10T02:44:49.094Z,18.52
2017-07-10T02:45:49.814Z,18.45
2017-07-10T02:46:50.538Z,18.45
2017-07-10T02:47:51.261Z,18.45
2017-07-10T02:48:51.992Z,18.50
2017-07-10T02:49:52.713Z,18.47
2017-07-10T02:50:53.442Z,18.44
2017-07-10T02:51:54.166Z,18.58
2017-07-10T02:52:54.889Z,18.45
2017-07-10T02:53:55.615Z,18.45
2017-07-10T02:54:56.343Z,18.45
2017-07-10T02:55:57.064Z,18.44
2017-07-10T02:56:57.794Z,18.41
2017-07-10T02:57:58.526Z,18.58
2017-07-10T02:58:59.245Z,18.47
2017-07-10T02:59:59.994Z,18.45
2017-07-10T03:01:00.718Z,18.40
2017-07-10T03:02:01.446Z,18.44
2017-07-10T03:03:02.170Z,18.37
2017-07-10T03:04:02.897Z,18.33
2017-07-10T03:05:03.619Z,18.35
2017-07-10T03:06:04.349Z,18.35
2017-07-10T03:07:05.073Z,18.37
2017-07-10T03:08:05.799Z,18.37
2017-07-10T03:09:06.529Z,18.37
2017-07-10T03:10:07.258Z,18.40
2017-07-10T03:11:07.985Z,18.37
2017-07-10T03:12:08.710Z,18.41
2017-07-10T03:13:09.456Z,18.41
2017-07-10T03:14:10.183Z,18.37
2017-07-10T03:15:10.907Z,18.47
2017-07-10T03:16:11.630Z,18.47
2017-07-10T03:17:12.354Z,18.47
2017-07-10T03:18:13.081Z,18.44
2017-07-10T03:19:13.810Z,18.41
2017-07-10T03:20:14.535Z,18.52
2017-07-10T03:21:15.267Z,18.43
2017-07-10T03:22:15.989Z,18.47
2017-07-10T03:23:16.723Z,18.47
2017-07-10T03:24:17.442Z,18.45
2017-07-10T03:25:18.167Z,18.40
2017-07-10T03:26:18.896Z,18.45
2017-07-10T03:27:19.625Z,18.40
2017-07-10T03:28:20.349Z,18.40
2017-07-10T03:29:21.072Z,18.47
2017-07-10T03:30:21.804Z,18.41
2017-07-10T03:31:22.550Z,18.41
2017-07-10T03:32:23.278Z,18.40
2017-07-10T03:33:24.003Z,18.43
2017-07-10T03:34:24.755Z,18.38
2017-07-10T03:35:25.482Z,18.40
2017-07-10T03:36:26.229Z,18.43
2017-07-10T03:37:26.957Z,18.37
2017-07-10T03:38:27.686Z,18.44
2017-07-10T03:39:28.413Z,18.41
2017-07-10T03:40:29.142Z,18.38
2017-07-10T03:41:29.871Z,18.43
2017-07-10T03:42:30.600Z,18.38
2017-07-10T03:43:31.326Z,18.37
2017-07-10T03:44:32.054Z,18.44
2017-07-10T03:45:32.784Z,18.40
2017-07-10T03:46:33.509Z,18.44
2017-07-10T03:47:34.238Z,18.49
2017-07-10T03:48:35.018Z,18.41
2017-07-10T03:49:35.693Z,18.43
2017-07-10T03:50:36.420Z,18.44
2017-07-10T03:51:37.149Z,18.40
2017-07-10T03:52:37.888Z,18.43
2017-07-10T03:53:38.606Z,18.45
2017-07-10T03:54:39.338Z,18.41
2017-07-10T03:55:40.063Z,18.49
2017-07-10T03:56:40.792Z,18.45
2017-07-10T03:57:41.521Z,18.47
2017-07-10T03:58:42.249Z,18.44
2017-07-10T03:59:42.976Z,18.44
2017-07-10T04:00:43.706Z,18.50
2017-07-10T04:01:44.436Z,18.45
2017-07-10T04:02:45.190Z,18.49
2017-07-10T04:03:45.940Z,18.52
2017-07-10T04:04:46.670Z,18.47
2017-07-10T04:05:47.395Z,18.55
2017-07-10T04:06:48.124Z,18.62
2017-07-10T04:07:48.853Z,18.59
2017-07-10T04:08:49.584Z,18.60
2017-07-10T04:09:50.337Z,18.58
2017-07-10T04:10:51.089Z,18.56
2017-07-10T04:11:51.839Z,18.56
2017-07-10T04:12:52.571Z,18.65
2017-07-10T04:13:53.321Z,18.56
2017-07-10T04:14:54.049Z,18.62
2017-07-10T04:15:54.804Z,18.59
2017-07-10T04:16:55.535Z,18.59
2017-07-10T04:17:56.265Z,18.63
2017-07-10T04:18:56.996Z,18.66
2017-07-10T04:19:57.728Z,18.60
2017-07-10T04:20:58.457Z,18.71
2017-07-10T04:21:59.189Z,18.74
2017-07-10T04:22:59.922Z,18.70
2017-07-10T04:24:00.647Z,18.66
2017-07-10T04:25:01.380Z,18.70
2017-07-10T04:26:02.113Z,18.62
2017-07-10T04:27:02.842Z,18.71
2017-07-10T04:28:03.573Z,18.70
2017-07-10T04:29:04.305Z,18.53
2017-07-10T04:30:05.054Z,18.68
2017-07-10T04:31:05.808Z,18.71
2017-07-10T04:32:06.541Z,18.75
2017-07-10T04:33:07.272Z,18.70
2017-07-10T04:34:08.003Z,18.71
2017-07-10T04:35:08.736Z,18.68
2017-07-10T04:36:09.463Z,18.59
2017-07-10T04:37:10.191Z,18.65
2017-07-10T04:38:10.923Z,18.68
2017-07-10T04:39:11.654Z,18.75
2017-07-10T04:40:12.380Z,18.66
2017-07-10T04:41:13.113Z,18.75
2017-07-10T04:42:13.845Z,18.75
2017-07-10T04:43:14.591Z,18.83
2017-07-10T04:44:15.325Z,18.77
2017-07-10T04:45:16.055Z,18.77
2017-07-10T04:46:16.785Z,18.75
2017-07-10T04:47:17.513Z,18.74
2017-07-10T04:48:18.242Z,18.80
2017-07-10T04:49:18.973Z,18.84
2017-07-10T04:50:19.702Z,18.80
2017-07-10T04:51:20.435Z,18.80
2017-07-10T04:52:21.191Z,18.80
2017-07-10T04:53:21.919Z,18.90
2017-07-10T04:54:22.647Z,18.92
2017-07-10T04:55:23.377Z,18.86
2017-07-10T04:56:24.107Z,18.92
2017-07-10T04:57:24.838Z,18.86
2017-07-10T04:58:25.569Z,18.80
2017-07-10T04:59:26.297Z,18.77
2017-07-10T05:00:27.028Z,18.86
2017-07-10T05:01:27.758Z,18.75
2017-07-10T05:02:28.490Z,18.77
2017-07-10T05:03:29.222Z,18.77
2017-07-10T05:04:29.948Z,18.74
2017-07-10T05:05:30.681Z,18.73
2017-07-10T05:06:31.411Z,18.68
2017-07-10T05:07:32.139Z,18.63
2017-07-10T05:08:32.871Z,18.73
2017-07-10T05:09:33.627Z,18.68
2017-07-10T05:10:34.356Z,18.68
2017-07-10T05:11:35.091Z,18.73
2017-07-10T05:12:35.819Z,18.74
2017-07-10T05:13:36.549Z,18.74
2017-07-10T05:14:37.277Z,18.73
2017-07-10T05:15:38.009Z,18.71
2017-07-10T05:16:38.738Z,18.74
2017-07-10T05:17:39.466Z,18.75
2017-07-10T05:18:40.254Z,18.66
2017-07-10T05:19:40.930Z,18.74
2017-07-10T05:20:41.660Z,18.71
2017-07-10T05:21:42.390Z,18.74
2017-07-10T05:22:43.118Z,18.71
2017-07-10T05:23:43.851Z,18.60
2017-07-10T05:24:44.582Z,18.60
2017-07-10T05:25:45.315Z,18.60
2017-07-10T05:26:46.042Z,18.60
2017-07-10T05:27:46.773Z,18.73
2017-07-10T05:28:47.499Z,18.63
2017-07-10T05:29:48.230Z,18.73
2017-07-10T05:30:48.961Z,18.60
2017-07-10T05:31:49.694Z,18.74
2017-07-10T05:32:50.417Z,18.66
2017-07-10T05:33:51.169Z,18.78
2017-07-10T05:34:51.898Z,18.77
2017-07-10T05:35:52.626Z,18.66
2017-07-10T05:36:53.355Z,18.71
2017-07-10T05:37:54.083Z,18.74
2017-07-10T05:38:54.813Z,18.77
2017-07-10T05:39:55.545Z,18.80
2017-07-10T05:40:56.271Z,18.75
2017-07-10T05:41:57.004Z,18.77
2017-07-10T05:42:57.735Z,18.88
2017-07-10T05:43:58.467Z,18.83
2017-07-10T05:44:59.195Z,18.89
2017-07-10T05:45:59.931Z,18.89
2017-07-10T05:47:00.659Z,18.99
2017-07-10T05:48:01.385Z,18.98
2017-07-10T05:49:02.122Z,19.11
2017-07-10T05:50:02.849Z,19.09
2017-07-10T05:51:03.575Z,19.07
2017-07-10T05:52:04.312Z,19.07
2017-07-10T05:53:05.043Z,19.14
2017-07-10T05:54:05.771Z,19.18
2017-07-10T05:55:06.499Z,19.09
2017-07-10T05:56:07.233Z,19.12
2017-07-10T05:57:07.962Z,19.12
2017-07-10T05:58:08.691Z,19.12
2017-07-10T05:59:09.423Z,19.15
2017-07-10T06:00:10.153Z,19.11
2017-07-10T06:01:10.879Z,19.11
2017-07-10T06:02:11.634Z,19.09
2017-07-10T06:03:12.363Z,19.07
2017-07-10T06:04:13.099Z,19.09
2017-07-10T06:05:13.834Z,19.02
2017-07-10T06:06:14.564Z,19.00
2017-07-10T06:07:15.297Z,19.04
2017-07-10T06:08:16.028Z,19.07
2017-07-10T06:09:16.758Z,19.09
2017-07-10T06:10:17.490Z,19.07
2017-07-10T06:11:18.219Z,19.15
2017-07-10T06:12:18.951Z,19.12
2017-07-10T06:13:19.686Z,19.19
2017-07-10T06:14:20.420Z,19.18
2017-07-10T06:15:21.151Z,19.11
2017-07-10T06:16:21.880Z,19.15
2017-07-10T06:17:22.611Z,19.16
2017-07-10T06:18:23.341Z,19.15
2017-07-10T06:19:24.069Z,19.14
2017-07-10T06:20:24.803Z,19.18
2017-07-10T06:21:25.534Z,19.15
2017-07-10T06:22:26.262Z,19.12
2017-07-10T06:23:26.995Z,19.22
2017-07-10T06:24:27.726Z,19.24
2017-07-10T06:25:28.454Z,19.24
2017-07-10T06:26:29.187Z,19.24
2017-07-10T06:27:29.941Z,19.22
2017-07-10T06:28:30.672Z,19.27
2017-07-10T06:29:31.426Z,19.31
2017-07-10T06:30:32.156Z,19.31
2017-07-10T06:31:32.887Z,19.39
2017-07-10T06:32:33.616Z,19.30
2017-07-10T06:33:34.348Z,19.27
2017-07-10T06:34:35.087Z,19.24
2017-07-10T06:35:35.818Z,19.31
2017-07-10T06:36:36.554Z,19.29
2017-07-10T06:37:37.285Z,19.29
2017-07-10T06:38:38.017Z,19.26
2017-07-10T06:39:38.752Z,19.39
2017-07-10T06:40:39.483Z,19.30
2017-07-10T06:41:40.241Z,19.26
2017-07-10T06:42:40.972Z,19.24
2017-07-10T06:43:41.703Z,19.24
2017-07-10T06:44:42.436Z,19.15
2017-07-10T06:45:43.166Z,19.02
2017-07-10T06:46:43.897Z,19.02
2017-07-10T06:47:44.626Z,19.12
2017-07-10T06:48:45.360Z,18.95
2017-07-10T06:49:46.093Z,19.09
2017-07-10T06:50:46.824Z,19.00
2017-07-10T06:51:47.555Z,18.93
2017-07-10T06:52:48.289Z,18.92
2017-07-10T06:53:49.019Z,18.90
2017-07-10T06:54:49.752Z,19.02
2017-07-10T06:55:50.486Z,18.89
2017-07-10T06:56:51.220Z,18.95
2017-07-10T06:57:51.953Z,19.00
2017-07-10T06:58:52.685Z,19.04
2017-07-10T06:59:53.417Z,19.14
2017-07-10T07:00:54.169Z,19.19
2017-07-10T07:01:54.903Z,19.26
2017-07-10T07:02:55.636Z,19.22
2017-07-10T07:03:56.369Z,19.16
2017-07-10T07:04:57.098Z,19.30
2017-07-10T07:05:57.832Z,19.34
2017-07-10T07:06:58.561Z,19.30
2017-07-10T07:07:59.295Z,19.41
2017-07-10T07:09:00.030Z,19.48
2017-07-10T07:10:00.762Z,19.54
2017-07-10T07:11:01.492Z,19.55
2017-07-10T07:12:02.223Z,19.62
2017-07-10T07:13:02.955Z,19.70
2017-07-10T07:14:03.690Z,19.82
2017-07-10T07:15:04.420Z,19.73
2017-07-10T07:16:05.150Z,19.77
2017-07-10T07:17:05.885Z,19.77
2017-07-10T07:18:06.635Z,19.85
2017-07-10T07:19:07.369Z,19.79
2017-07-10T07:20:08.103Z,19.64
2017-07-10T07:21:08.832Z,19.70
2017-07-10T07:22:09.565Z,19.77
2017-07-10T07:23:10.298Z,19.64
2017-07-10T07:24:11.028Z,19.56
2017-07-10T07:25:11.757Z,19.52
2017-07-10T07:26:12.493Z,19.55
2017-07-10T07:27:13.222Z,19.63
2017-07-10T07:28:13.956Z,19.55
2017-07-10T07:29:14.687Z,19.63
2017-07-10T07:30:15.420Z,19.66
2017-07-10T07:31:16.154Z,19.71
2017-07-10T07:32:16.885Z,19.64
2017-07-10T07:33:17.618Z,19.58
2017-07-10T07:34:18.355Z,19.52
2017-07-10T07:35:19.085Z,19.64
2017-07-10T07:36:19.817Z,19.67
2017-07-10T07:37:20.549Z,19.71
2017-07-10T07:38:21.281Z,19.82
2017-07-10T07:39:22.010Z,19.81
2017-07-10T07:40:22.746Z,19.76
2017-07-10T07:41:23.474Z,19.74
2017-07-10T07:42:24.228Z,19.76
2017-07-10T07:43:24.959Z,19.79
2017-07-10T07:44:25.692Z,19.79
2017-07-10T07:45:26.426Z,19.84
2017-07-10T07:46:27.157Z,19.74
2017-07-10T07:47:27.891Z,19.54
2017-07-10T07:48:28.618Z,19.30
2017-07-10T07:49:29.353Z,19.34
2017-07-10T07:50:30.083Z,19.14
2017-07-10T07:51:30.819Z,19.12
2017-07-10T07:52:31.551Z,19.18
2017-07-10T07:53:32.283Z,19.26
2017-07-10T07:54:33.014Z,19.27
2017-07-10T07:55:33.748Z,19.40
2017-07-10T07:56:34.479Z,19.45
2017-07-10T07:57:35.212Z,19.48
2017-07-10T07:58:35.945Z,19.48
2017-07-10T07:59:36.673Z,19.58
2017-07-10T08:00:37.408Z,19.62
2017-07-10T08:01:38.138Z,19.63
2017-07-10T08:02:38.872Z,19.56
2017-07-10T08:03:39.634Z,19.58
2017-07-10T08:04:40.358Z,19.71
2017-07-10T08:05:41.088Z,19.67
2017-07-10T08:06:41.823Z,19.67
2017-07-10T08:07:42.554Z,19.74
2017-07-10T08:08:43.282Z,19.77
2017-07-10T08:09:44.018Z,19.84
2017-07-10T08:10:44.750Z,19.84
2017-07-10T08:11:45.482Z,19.88
2017-07-10T08:12:46.217Z,19.88
2017-07-10T08:13:46.951Z,19.92
2017-07-10T08:14:47.682Z,19.94
2017-07-10T08:15:48.412Z,19.96
2017-07-10T08:16:49.147Z,20.09
2017-07-10T08:17:49.875Z,20.11
2017-07-10T08:18:50.608Z,20.11
2017-07-10T08:19:51.338Z,20.19
2017-07-10T08:20:52.072Z,20.22
2017-07-10T08:21:52.803Z,20.09
2017-07-10T08:22:53.538Z,20.10
2017-07-10T08:23:54.265Z,19.88
2017-07-10T08:24:54.999Z,19.94
2017-07-10T08:25:55.733Z,19.84
2017-07-10T08:26:56.465Z,19.86
2017-07-10T08:27:57.195Z,19.86
2017-07-10T08:28:57.931Z,19.85
2017-07-10T08:29:58.663Z,19.73
2017-07-10T08:30:59.402Z,19.63
2017-07-10T08:32:00.131Z,19.71
2017-07-10T08:33:00.863Z,19.67
2017-07-10T08:34:01.595Z,19.66
2017-07-10T08:35:02.328Z,19.67
2017-07-10T08:36:03.077Z,19.63
2017-07-10T08:37:03.810Z,19.71
2017-07-10T08:38:04.541Z,19.55
2017-07-10T08:39:05.273Z,19.62
2017-07-10T08:40:06.006Z,19.59
2017-07-10T08:41:06.761Z,19.54
2017-07-10T08:42:07.493Z,19.69
2017-07-10T08:43:08.228Z,19.66
2017-07-10T08:44:08.960Z,19.79
2017-07-10T08:45:09.693Z,19.81
2017-07-10T08:46:10.425Z,19.82
2017-07-10T08:47:11.178Z,19.86
2017-07-10T08:48:11.915Z,19.81
2017-07-10T08:49:12.645Z,19.79
2017-07-10T08:50:13.375Z,19.82
2017-07-10T08:51:14.106Z,19.77
2017-07-10T08:52:14.844Z,19.85
2017-07-10T08:53:15.570Z,19.91
2017-07-10T08:54:16.304Z,20.00
2017-07-10T08:55:17.039Z,19.96
2017-07-10T08:56:17.770Z,19.95
2017-07-10T08:57:18.503Z,20.13
2017-07-10T08:58:19.232Z,19.99
2017-07-10T08:59:19.968Z,20.16
2017-07-10T09:00:20.700Z,20.07
2017-07-10T09:01:21.438Z,20.11
2017-07-10T09:02:22.164Z,20.28
2017-07-10T09:03:22.893Z,20.28
2017-07-10T09:04:23.630Z,20.36
2017-07-10T09:05:24.361Z,20.37
2017-07-10T09:06:25.096Z,20.43
2017-07-10T09:07:25.831Z,20.44
2017-07-10T09:08:26.566Z,20.58
2017-07-10T09:09:27.298Z,20.58
2017-07-10T09:10:28.031Z,20.63
2017-07-10T09:11:28.765Z,20.77
2017-07-10T09:12:29.494Z,20.77
2017-07-10T09:13:30.228Z,20.84
2017-07-10T09:14:30.964Z,20.80
2017-07-10T09:15:31.694Z,20.77
2017-07-10T09:16:32.431Z,20.80
2017-07-10T09:17:33.168Z,20.81
2017-07-10T09:18:33.904Z,20.85
2017-07-10T09:19:34.642Z,20.84
2017-07-10T09:20:35.370Z,20.78
2017-07-10T09:21:36.102Z,20.97
2017-07-10T09:22:36.839Z,21.14
2017-07-10T09:23:37.575Z,21.27
2017-07-10T09:24:38.307Z,21.29
2017-07-10T09:25:39.045Z,21.30
2017-07-10T09:26:39.782Z,21.33
2017-07-10T09:27:40.518Z,21.42
2017-07-10T09:28:41.252Z,21.57
2017-07-10T09:29:41.986Z,21.54
2017-07-10T09:30:42.719Z,21.58
2017-07-10T09:31:43.451Z,21.37
2017-07-10T09:32:44.192Z,21.20
2017-07-10T09:33:44.926Z,21.27
2017-07-10T09:34:45.659Z,21.27
2017-07-10T09:35:46.393Z,21.37
2017-07-10T09:36:47.127Z,21.35
2017-07-10T09:37:47.867Z,21.27
2017-07-10T09:38:48.604Z,21.51
2017-07-10T09:39:49.335Z,21.57
2017-07-10T09:40:50.069Z,21.76
2017-07-10T09:41:50.804Z,21.61
2017-07-10T09:42:51.564Z,21.45
2017-07-10T09:43:52.299Z,21.66
2017-07-10T09:44:53.032Z,21.58
2017-07-10T09:45:53.781Z,21.58
2017-07-10T09:46:54.528Z,21.69
2017-07-10T09:47:55.268Z,21.85
2017-07-10T09:48:56.002Z,21.89
2017-07-10T09:49:56.738Z,21.96
2017-07-10T09:50:57.474Z,22.08
2017-07-10T09:51:58.209Z,22.17
2017-07-10T09:52:58.951Z,22.30
2017-07-10T09:53:59.684Z,22.32
2017-07-10T09:55:00.417Z,22.13
2017-07-10T09:56:01.158Z,22.36
2017-07-10T09:57:01.895Z,22.44
2017-07-10T09:58:02.633Z,22.69
2017-07-10T09:59:03.373Z,22.90
2017-07-10T10:00:04.137Z,23.10
2017-07-10T10:01:04.874Z,23.32
2017-07-10T10:02:05.620Z,23.17
2017-07-10T10:03:06.361Z,23.12
2017-07-10T10:04:07.102Z,23.54
2017-07-10T10:05:07.845Z,23.61
2017-07-10T10:06:08.592Z,23.50
2017-07-10T10:07:09.335Z,23.55
2017-07-10T10:08:10.071Z,24.02
2017-07-10T10:09:10.816Z,24.50
2017-07-10T10:10:11.557Z,25.18
2017-07-10T10:11:12.300Z,25.85
2017-07-10T10:12:13.046Z,26.40
2017-07-10T10:13:13.787Z,26.65
2017-07-10T10:14:14.532Z,27.20
2017-07-10T10:15:15.278Z,27.80
2017-07-10T10:16:16.023Z,28.17
2017-07-10T10:17:16.770Z,28.66
2017-07-10T10:18:17.518Z,29.26
2017-07-10T10:19:18.266Z,29.82
2017-07-10T10:20:19.015Z,29.17
2017-07-10T10:21:19.762Z,29.44
2017-07-10T10:22:20.504Z,29.01
2017-07-10T10:23:21.271Z,28.96
2017-07-10T10:24:22.015Z,28.98
2017-07-10T10:25:22.766Z,29.60
2017-07-10T10:26:23.541Z,29.72
2017-07-10T10:27:24.290Z,29.78
2017-07-10T10:28:25.041Z,29.13
2017-07-10T10:29:25.793Z,28.94
2017-07-10T10:30:26.544Z,28.04
2017-07-10T10:31:27.296Z,27.92
2017-07-10T10:32:28.044Z,28.08
2017-07-10T10:33:28.793Z,28.10
2017-07-10T10:34:29.543Z,27.75
2017-07-10T10:35:30.288Z,27.26
2017-07-10T10:36:31.035Z,27.00
2017-07-10T10:37:31.774Z,27.21
2017-07-10T10:38:32.520Z,26.92
2017-07-10T10:39:33.261Z,27.03
2017-07-10T10:40:34.004Z,26.99
2017-07-10T10:41:34.748Z,27.11
2017-07-10T10:42:35.493Z,27.27
2017-07-10T10:43:36.239Z,27.42
2017-07-10T10:44:36.979Z,26.95
2017-07-10T10:45:37.725Z,26.75
2017-07-10T10:46:38.465Z,26.53
2017-07-10T10:47:39.203Z,26.81
2017-07-10T10:48:39.948Z,26.92
2017-07-10T10:49:40.696Z,26.97
2017-07-10T10:50:41.437Z,26.97
2017-07-10T10:51:42.180Z,26.90
2017-07-10T10:52:42.916Z,26.96
2017-07-10T10:53:43.658Z,27.10
2017-07-10T10:54:44.403Z,27.14
2017-07-10T10:55:45.163Z,27.14
2017-07-10T10:56:45.903Z,27.26
2017-07-10T10:57:46.648Z,27.26
2017-07-10T10:58:47.388Z,27.32
2017-07-10T10:59:48.130Z,27.33
2017-07-10T11:00:48.875Z,27.42
2017-07-10T11:01:49.615Z,27.35
2017-07-10T11:02:50.355Z,27.32
2017-07-10T11:03:51.094Z,27.17
2017-07-10T11:04:51.841Z,27.58
2017-07-10T11:05:52.583Z,27.87
2017-07-10T11:06:53.327Z,28.05
2017-07-10T11:07:54.067Z,28.12
2017-07-10T11:08:54.812Z,28.14
2017-07-10T11:09:55.549Z,28.20
2017-07-10T11:10:56.290Z,28.47
2017-07-10T11:11:57.036Z,28.23
2017-07-10T11:12:57.780Z,28.32
2017-07-10T11:13:58.517Z,27.60
2017-07-10T11:14:59.267Z,27.12
2017-07-10T11:16:00.006Z,27.10
2017-07-10T11:17:00.741Z,27.12
2017-07-10T11:18:01.481Z,27.36
2017-07-10T11:19:02.223Z,27.58
2017-07-10T11:20:02.961Z,27.60
2017-07-10T11:21:03.711Z,27.63
2017-07-10T11:22:04.444Z,27.73
2017-07-10T11:23:05.183Z,27.73
2017-07-10T11:24:05.926Z,27.75
2017-07-10T11:25:06.663Z,27.80
2017-07-10T11:26:07.428Z,27.70
2017-07-10T11:27:08.168Z,28.01
2017-07-10T11:28:08.908Z,28.30
2017-07-10T11:29:09.647Z,28.39
2017-07-10T11:30:10.391Z,28.37
2017-07-10T11:31:11.130Z,28.37
2017-07-10T11:32:11.889Z,28.19
2017-07-10T11:33:12.632Z,27.89
2017-07-10T11:34:13.375Z,27.68
2017-07-10T11:35:14.113Z,27.45
2017-07-10T11:36:14.857Z,27.40
2017-07-10T11:37:15.600Z,27.58
2017-07-10T11:38:16.337Z,27.14
2017-07-10T11:39:17.079Z,27.08
2017-07-10T11:40:17.820Z,27.02
2017-07-10T11:41:18.563Z,26.96
2017-07-10T11:42:19.302Z,27.02
2017-07-10T11:43:20.042Z,27.12
2017-07-10T11:44:20.779Z,27.00
2017-07-10T11:45:21.524Z,27.35
2017-07-10T11:46:22.263Z,27.35
2017-07-10T11:47:23.000Z,27.30
2017-07-10T11:48:23.745Z,27.29
2017-07-10T11:49:24.481Z,27.32
2017-07-10T11:50:25.223Z,27.33
2017-07-10T11:51:25.968Z,27.32
2017-07-10T11:52:26.703Z,27.32
2017-07-10T11:53:27.440Z,27.45
2017-07-10T11:54:28.183Z,27.49
2017-07-10T11:55:28.925Z,27.40
2017-07-10T11:56:29.661Z,27.54
2017-07-10T11:57:30.427Z,27.60
2017-07-10T11:58:31.171Z,27.70
2017-07-10T11:59:31.909Z,27.68
2017-07-10T12:00:32.650Z,27.74
2017-07-10T12:01:33.394Z,27.68
2017-07-10T12:02:34.132Z,27.85
2017-07-10T12:03:34.884Z,27.52
2017-07-10T12:04:35.613Z,27.27
2017-07-10T12:05:36.351Z,27.37
2017-07-10T12:06:37.091Z,27.37
2017-07-10T12:07:37.829Z,27.26
2017-07-10T12:08:38.573Z,27.36
2017-07-10T12:09:39.311Z,27.37
2017-07-10T12:10:40.051Z,27.36
2017-07-10T12:11:40.789Z,27.39
2017-07-10T12:12:41.550Z,27.47
2017-07-10T12:13:42.291Z,27.36
2017-07-10T12:14:43.026Z,27.15
2017-07-10T12:15:43.768Z,27.05
2017-07-10T12:16:44.504Z,27.10
2017-07-10T12:17:45.245Z,27.03
2017-07-10T12:18:45.987Z,27.03
2017-07-10T12:19:46.725Z,27.02
2017-07-10T12:20:47.461Z,27.10
2017-07-10T12:21:48.205Z,27.08
2017-07-10T12:22:48.944Z,27.17
2017-07-10T12:23:49.679Z,27.33
2017-07-10T12:24:50.422Z,27.42
2017-07-10T12:25:51.159Z,27.64
2017-07-10T12:26:51.896Z,27.83
2017-07-10T12:27:52.662Z,27.96
2017-07-10T12:28:53.400Z,28.32
2017-07-10T12:29:54.141Z,28.62
2017-07-10T12:30:54.886Z,28.89
2017-07-10T12:31:55.653Z,29.50
2017-07-10T12:32:56.393Z,29.68
2017-07-10T12:33:57.140Z,29.65
2017-07-10T12:34:57.878Z,29.75
2017-07-10T12:35:58.621Z,29.88
2017-07-10T12:36:59.363Z,30.28
2017-07-10T12:38:00.109Z,30.48
2017-07-10T12:39:00.854Z,30.68
2017-07-10T12:40:01.595Z,30.84
2017-07-10T12:41:02.343Z,30.63
2017-07-10T12:42:03.087Z,30.43
2017-07-10T12:43:03.827Z,30.28
2017-07-10T12:44:04.571Z,30.08
2017-07-10T12:45:05.311Z,30.10
2017-07-10T12:46:06.053Z,29.91
2017-07-10T12:47:06.795Z,29.84
2017-07-10T12:48:07.542Z,29.76
2017-07-10T12:49:08.277Z,29.59
2017-07-10T12:50:09.018Z,29.57
2017-07-10T12:51:09.762Z,29.60
2017-07-10T12:52:10.501Z,29.42
2017-07-10T12:53:11.240Z,29.29
2017-07-10T12:54:12.003Z,29.02
2017-07-10T12:55:12.745Z,28.93
2017-07-10T12:56:13.483Z,28.76
2017-07-10T12:57:14.228Z,28.81
2017-07-10T12:58:14.966Z,28.79
2017-07-10T12:59:15.706Z,28.57
2017-07-10T13:00:16.446Z,28.37
2017-07-10T13:01:17.188Z,28.44
2017-07-10T13:02:17.926Z,28.35